sensor_id;sensor_type;location;lat;lon;timestamp;temperature;humidity
9800;DHT22;4939;52.00085300;4.17406100;2023-05-10T00:00:51;11.20;99.90
9800;DHT22;4939;52.00085300;4.17406100;2023-05-10T00:03:17;11.10;99.90
9800;DHT22;4939;52.00085300;4.17406100;2023-05-10T00:05:42;11.20;99.90
9800;DHT22;4939;52.00085300;4.17406100;2023-05-10T00:08:08;11.10;99.90
9800;DHT22;4939;52.00085300;4.17406100;2023-05-10T00:13:00;11.00;99.90
9800;DHT22;4939;52.00085300;4.17406100;2023-05-10T00:15:25;11.00;99.90
9800;DHT22;4939;52.00085300;4.17406100;2023-05-10T00:17:51;11.00;99.90
9800;DHT22;4939;52.00085300;4.17406100;2023-05-10T00:22:43;11.10;99.90
9800;DHT22;4939;52.00085300;4.17406100;2023-05-10T00:25:09;11.10;99.90
9800;DHT22;4939;52.00085300;4.17406100;2023-05-10T00:30:02;11.10;99.90
9800;DHT22;4939;52.00085300;4.17406100;2023-05-10T00:34:53;11.20;99.90
9800;DHT22;4939;52.00085300;4.17406100;2023-05-10T00:37:20;11.30;99.90
9800;DHT22;4939;52.00085300;4.17406100;2023-05-10T00:39:45;11.30;99.90
9800;DHT22;4939;52.00085300;4.17406100;2023-05-10T00:42:11;11.30;99.90
9800;DHT22;4939;52.00085300;4.17406100;2023-05-10T00:44:37;11.40;99.90
9800;DHT22;4939;52.00085300;4.17406100;2023-05-10T00:49:29;11.40;99.90
9800;DHT22;4939;52.00085300;4.17406100;2023-05-10T00:51:55;11.30;99.90
9800;DHT22;4939;52.00085300;4.17406100;2023-05-10T00:54:21;11.30;99.90
9800;DHT22;4939;52.00085300;4.17406100;2023-05-10T00:56:47;11.20;99.90
9800;DHT22;4939;52.00085300;4.17406100;2023-05-10T00:59:18;11.30;99.90
9800;DHT22;4939;52.00085300;4.17406100;2023-05-10T01:01:45;11.40;99.90
9800;DHT22;4939;52.00085300;4.17406100;2023-05-10T01:04:12;11.50;99.90
9800;DHT22;4939;52.00085300;4.17406100;2023-05-10T01:06:42;11.60;99.90
9800;DHT22;4939;52.00085300;4.17406100;2023-05-10T01:09:08;11.50;99.90
9800;DHT22;4939;52.00085300;4.17406100;2023-05-10T01:11:35;11.70;99.90
9800;DHT22;4939;52.00085300;4.17406100;2023-05-10T01:14:02;11.80;99.90
9800;DHT22;4939;52.00085300;4.17406100;2023-05-10T01:16:31;11.80;99.90
9800;DHT22;4939;52.00085300;4.17406100;2023-05-10T01:21:29;11.90;99.90
9800;DHT22;4939;52.00085300;4.17406100;2023-05-10T01:32:36;12.00;99.90
9800;DHT22;4939;52.00085300;4.17406100;2023-05-10T01:35:16;12.10;99.90
9800;DHT22;4939;52.00085300;4.17406100;2023-05-10T01:37:50;12.10;99.90
9800;DHT22;4939;52.00085300;4.17406100;2023-05-10T01:40:32;12.20;99.90
9800;DHT22;4939;52.00085300;4.17406100;2023-05-10T01:43:04;12.20;99.90
9800;DHT22;4939;52.00085300;4.17406100;2023-05-10T01:46:02;12.20;99.90
9800;DHT22;4939;52.00085300;4.17406100;2023-05-10T01:48:52;12.10;99.90
9800;DHT22;4939;52.00085300;4.17406100;2023-05-10T01:51:25;12.20;99.90
9800;DHT22;4939;52.00085300;4.17406100;2023-05-10T01:53:59;12.10;99.90
9800;DHT22;4939;52.00085300;4.17406100;2023-05-10T01:56:26;12.10;99.90
9800;DHT22;4939;52.00085300;4.17406100;2023-05-10T01:58:53;12.20;99.90
9800;DHT22;4939;52.00085300;4.17406100;2023-05-10T02:01:21;12.10;99.90
9800;DHT22;4939;52.00085300;4.17406100;2023-05-10T02:03:49;12.20;99.90
9800;DHT22;4939;52.00085300;4.17406100;2023-05-10T02:06:18;12.20;99.90
9800;DHT22;4939;52.00085300;4.17406100;2023-05-10T02:08:44;12.20;99.90
9800;DHT22;4939;52.00085300;4.17406100;2023-05-10T02:11:13;12.20;99.90
9800;DHT22;4939;52.00085300;4.17406100;2023-05-10T02:13:39;12.10;99.90
9800;DHT22;4939;52.00085300;4.17406100;2023-05-10T02:16:07;12.10;99.90
9800;DHT22;4939;52.00085300;4.17406100;2023-05-10T02:18:34;12.20;99.90
9800;DHT22;4939;52.00085300;4.17406100;2023-05-10T02:21:02;12.20;99.90
9800;DHT22;4939;52.00085300;4.17406100;2023-05-10T02:23:29;12.20;99.90
9800;DHT22;4939;52.00085300;4.17406100;2023-05-10T02:25:56;12.20;99.90
9800;DHT22;4939;52.00085300;4.17406100;2023-05-10T02:28:23;12.20;99.90
9800;DHT22;4939;52.00085300;4.17406100;2023-05-10T02:30:51;12.00;99.90
9800;DHT22;4939;52.00085300;4.17406100;2023-05-10T02:33:18;12.00;99.90
9800;DHT22;4939;52.00085300;4.17406100;2023-05-10T02:35:46;12.10;99.90
9800;DHT22;4939;52.00085300;4.17406100;2023-05-10T02:38:14;12.10;99.90
9800;DHT22;4939;52.00085300;4.17406100;2023-05-10T02:40:42;12.10;99.90
9800;DHT22;4939;52.00085300;4.17406100;2023-05-10T02:43:13;12.00;99.90
9800;DHT22;4939;52.00085300;4.17406100;2023-05-10T02:45:40;12.00;99.90
9800;DHT22;4939;52.00085300;4.17406100;2023-05-10T02:48:06;11.90;99.90
9800;DHT22;4939;52.00085300;4.17406100;2023-05-10T02:50:33;11.80;99.90
9800;DHT22;4939;52.00085300;4.17406100;2023-05-10T02:53:01;11.90;99.90
9800;DHT22;4939;52.00085300;4.17406100;2023-05-10T02:55:35;11.80;99.90
9800;DHT22;4939;52.00085300;4.17406100;2023-05-10T02:58:06;11.80;99.90
9800;DHT22;4939;52.00085300;4.17406100;2023-05-10T03:00:32;11.80;99.90
9800;DHT22;4939;52.00085300;4.17406100;2023-05-10T03:02:58;11.80;99.90
9800;DHT22;4939;52.00085300;4.17406100;2023-05-10T03:05:23;11.80;99.90
9800;DHT22;4939;52.00085300;4.17406100;2023-05-10T03:07:49;11.80;99.90
9800;DHT22;4939;52.00085300;4.17406100;2023-05-10T03:10:16;11.80;99.90
9800;DHT22;4939;52.00085300;4.17406100;2023-05-10T03:15:37;11.70;99.90
9800;DHT22;4939;52.00085300;4.17406100;2023-05-10T03:20:50;11.80;99.90
9800;DHT22;4939;52.00085300;4.17406100;2023-05-10T03:25:48;11.80;99.90
9800;DHT22;4939;52.00085300;4.17406100;2023-05-10T03:28:16;11.80;99.90
9800;DHT22;4939;52.00085300;4.17406100;2023-05-10T03:30:43;11.80;99.90
9800;DHT22;4939;52.00085300;4.17406100;2023-05-10T03:33:09;11.80;99.90
9800;DHT22;4939;52.00085300;4.17406100;2023-05-10T03:35:35;11.80;99.90
9800;DHT22;4939;52.00085300;4.17406100;2023-05-10T03:38:01;11.60;99.90
9800;DHT22;4939;52.00085300;4.17406100;2023-05-10T03:40:27;11.70;99.90
9800;DHT22;4939;52.00085300;4.17406100;2023-05-10T03:42:55;11.60;99.90
9800;DHT22;4939;52.00085300;4.17406100;2023-05-10T03:47:47;11.60;99.90
9800;DHT22;4939;52.00085300;4.17406100;2023-05-10T03:50:13;11.60;99.90
9800;DHT22;4939;52.00085300;4.17406100;2023-05-10T03:52:38;11.50;99.90
9800;DHT22;4939;52.00085300;4.17406100;2023-05-10T03:55:07;11.50;99.90
9800;DHT22;4939;52.00085300;4.17406100;2023-05-10T03:57:33;11.40;99.90
9800;DHT22;4939;52.00085300;4.17406100;2023-05-10T03:59:59;11.40;99.90
9800;DHT22;4939;52.00085300;4.17406100;2023-05-10T04:02:25;11.40;99.90
9800;DHT22;4939;52.00085300;4.17406100;2023-05-10T04:04:51;11.40;99.90
9800;DHT22;4939;52.00085300;4.17406100;2023-05-10T04:07:16;11.40;99.90
9800;DHT22;4939;52.00085300;4.17406100;2023-05-10T04:09:43;11.30;99.90
9800;DHT22;4939;52.00085300;4.17406100;2023-05-10T04:12:09;11.40;99.90
9800;DHT22;4939;52.00085300;4.17406100;2023-05-10T04:14:35;11.30;99.90
9800;DHT22;4939;52.00085300;4.17406100;2023-05-10T04:17:00;11.40;99.90
9800;DHT22;4939;52.00085300;4.17406100;2023-05-10T04:19:32;11.40;99.90
9800;DHT22;4939;52.00085300;4.17406100;2023-05-10T04:21:58;11.50;99.90
9800;DHT22;4939;52.00085300;4.17406100;2023-05-10T04:24:25;11.50;99.90
9800;DHT22;4939;52.00085300;4.17406100;2023-05-10T04:26:51;11.50;99.90
9800;DHT22;4939;52.00085300;4.17406100;2023-05-10T04:29:17;11.50;99.90
9800;DHT22;4939;52.00085300;4.17406100;2023-05-10T04:31:42;11.60;99.90
9800;DHT22;4939;52.00085300;4.17406100;2023-05-10T04:34:08;11.50;99.90
9800;DHT22;4939;52.00085300;4.17406100;2023-05-10T04:36:34;11.60;99.90
9800;DHT22;4939;52.00085300;4.17406100;2023-05-10T04:39:02;11.50;99.90
9800;DHT22;4939;52.00085300;4.17406100;2023-05-10T04:43:56;11.60;99.90
9800;DHT22;4939;52.00085300;4.17406100;2023-05-10T04:46:22;11.60;99.90
9800;DHT22;4939;52.00085300;4.17406100;2023-05-10T04:48:48;11.60;99.90
9800;DHT22;4939;52.00085300;4.17406100;2023-05-10T04:51:13;11.60;99.90
9800;DHT22;4939;52.00085300;4.17406100;2023-05-10T04:53:39;11.70;99.90
9800;DHT22;4939;52.00085300;4.17406100;2023-05-10T04:56:05;11.60;99.90
9800;DHT22;4939;52.00085300;4.17406100;2023-05-10T05:00:59;11.70;99.90
9800;DHT22;4939;52.00085300;4.17406100;2023-05-10T05:03:29;11.70;99.90
9800;DHT22;4939;52.00085300;4.17406100;2023-05-10T05:05:55;11.70;99.90
9800;DHT22;4939;52.00085300;4.17406100;2023-05-10T05:08:21;11.80;99.90
9800;DHT22;4939;52.00085300;4.17406100;2023-05-10T05:10:48;11.80;99.90
9800;DHT22;4939;52.00085300;4.17406100;2023-05-10T05:13:15;11.80;99.90
9800;DHT22;4939;52.00085300;4.17406100;2023-05-10T05:15:41;11.80;99.90
9800;DHT22;4939;52.00085300;4.17406100;2023-05-10T05:18:06;11.80;99.90
9800;DHT22;4939;52.00085300;4.17406100;2023-05-10T05:20:33;11.90;99.90
9800;DHT22;4939;52.00085300;4.17406100;2023-05-10T05:22:59;11.80;99.90
9800;DHT22;4939;52.00085300;4.17406100;2023-05-10T05:27:51;11.90;99.90
9800;DHT22;4939;52.00085300;4.17406100;2023-05-10T05:30:17;11.90;99.90
9800;DHT22;4939;52.00085300;4.17406100;2023-05-10T05:32:43;12.10;99.90
9800;DHT22;4939;52.00085300;4.17406100;2023-05-10T05:37:34;12.00;99.90
9800;DHT22;4939;52.00085300;4.17406100;2023-05-10T05:40:01;12.10;99.90
9800;DHT22;4939;52.00085300;4.17406100;2023-05-10T05:42:27;12.10;99.90
9800;DHT22;4939;52.00085300;4.17406100;2023-05-10T05:44:52;12.20;99.90
9800;DHT22;4939;52.00085300;4.17406100;2023-05-10T05:47:18;12.20;99.90
9800;DHT22;4939;52.00085300;4.17406100;2023-05-10T05:57:05;12.30;99.90
9800;DHT22;4939;52.00085300;4.17406100;2023-05-10T05:59:31;12.30;99.90
9800;DHT22;4939;52.00085300;4.17406100;2023-05-10T06:04:23;12.30;99.90
9800;DHT22;4939;52.00085300;4.17406100;2023-05-10T06:09:14;12.30;99.90
9800;DHT22;4939;52.00085300;4.17406100;2023-05-10T06:14:06;12.20;99.90
9800;DHT22;4939;52.00085300;4.17406100;2023-05-10T06:16:36;12.20;99.90
9800;DHT22;4939;52.00085300;4.17406100;2023-05-10T06:19:02;12.10;99.90
9800;DHT22;4939;52.00085300;4.17406100;2023-05-10T06:21:28;12.10;99.90
9800;DHT22;4939;52.00085300;4.17406100;2023-05-10T06:23:53;12.20;99.90
9800;DHT22;4939;52.00085300;4.17406100;2023-05-10T06:26:19;12.20;99.90
9800;DHT22;4939;52.00085300;4.17406100;2023-05-10T06:31:12;12.30;99.90
9800;DHT22;4939;52.00085300;4.17406100;2023-05-10T06:33:38;12.30;99.90
9800;DHT22;4939;52.00085300;4.17406100;2023-05-10T06:36:03;12.30;99.90
9800;DHT22;4939;52.00085300;4.17406100;2023-05-10T06:40:55;12.60;99.90
9800;DHT22;4939;52.00085300;4.17406100;2023-05-10T06:43:21;12.70;99.90
9800;DHT22;4939;52.00085300;4.17406100;2023-05-10T06:45:48;12.70;99.90
9800;DHT22;4939;52.00085300;4.17406100;2023-05-10T06:48:13;12.80;99.90
9800;DHT22;4939;52.00085300;4.17406100;2023-05-10T06:50:39;12.90;99.90
9800;DHT22;4939;52.00085300;4.17406100;2023-05-10T06:55:31;12.80;99.90
9800;DHT22;4939;52.00085300;4.17406100;2023-05-10T06:57:57;12.90;99.90
9800;DHT22;4939;52.00085300;4.17406100;2023-05-10T07:00:22;12.90;99.90
9800;DHT22;4939;52.00085300;4.17406100;2023-05-10T07:02:48;12.80;99.90
9800;DHT22;4939;52.00085300;4.17406100;2023-05-10T07:05:14;12.80;99.90
9800;DHT22;4939;52.00085300;4.17406100;2023-05-10T07:07:40;12.80;99.90
9800;DHT22;4939;52.00085300;4.17406100;2023-05-10T07:10:06;12.80;99.90
9800;DHT22;4939;52.00085300;4.17406100;2023-05-10T07:12:33;12.80;99.90
9800;DHT22;4939;52.00085300;4.17406100;2023-05-10T07:14:58;12.80;99.90
9800;DHT22;4939;52.00085300;4.17406100;2023-05-10T07:17:24;12.90;99.90
9800;DHT22;4939;52.00085300;4.17406100;2023-05-10T07:19:50;12.90;99.90
9800;DHT22;4939;52.00085300;4.17406100;2023-05-10T07:22:16;13.00;99.90
9800;DHT22;4939;52.00085300;4.17406100;2023-05-10T07:24:42;13.20;99.90
9800;DHT22;4939;52.00085300;4.17406100;2023-05-10T07:27:08;13.30;99.90
9800;DHT22;4939;52.00085300;4.17406100;2023-05-10T07:29:35;13.40;99.90
9800;DHT22;4939;52.00085300;4.17406100;2023-05-10T07:32:13;13.40;99.90
9800;DHT22;4939;52.00085300;4.17406100;2023-05-10T07:37:14;13.40;99.90
9800;DHT22;4939;52.00085300;4.17406100;2023-05-10T07:42:06;13.30;99.90
9800;DHT22;4939;52.00085300;4.17406100;2023-05-10T07:44:31;13.30;99.90
9800;DHT22;4939;52.00085300;4.17406100;2023-05-10T07:46:57;13.30;99.90
9800;DHT22;4939;52.00085300;4.17406100;2023-05-10T07:51:49;13.10;99.90
9800;DHT22;4939;52.00085300;4.17406100;2023-05-10T07:54:15;13.10;99.90
9800;DHT22;4939;52.00085300;4.17406100;2023-05-10T07:56:41;13.20;99.90
9800;DHT22;4939;52.00085300;4.17406100;2023-05-10T07:59:15;13.10;99.90
9800;DHT22;4939;52.00085300;4.17406100;2023-05-10T08:01:41;13.20;99.90
9800;DHT22;4939;52.00085300;4.17406100;2023-05-10T08:04:07;13.30;99.90
9800;DHT22;4939;52.00085300;4.17406100;2023-05-10T08:06:34;13.40;99.90
9800;DHT22;4939;52.00085300;4.17406100;2023-05-10T08:09:00;13.30;99.90
9800;DHT22;4939;52.00085300;4.17406100;2023-05-10T08:11:26;13.20;99.90
9800;DHT22;4939;52.00085300;4.17406100;2023-05-10T08:13:53;13.10;99.90
9800;DHT22;4939;52.00085300;4.17406100;2023-05-10T08:18:46;13.10;99.90
9800;DHT22;4939;52.00085300;4.17406100;2023-05-10T08:21:13;13.10;99.90
9800;DHT22;4939;52.00085300;4.17406100;2023-05-10T08:23:39;13.10;99.90
9800;DHT22;4939;52.00085300;4.17406100;2023-05-10T08:26:05;13.10;99.90
9800;DHT22;4939;52.00085300;4.17406100;2023-05-10T08:28:31;13.00;99.90
9800;DHT22;4939;52.00085300;4.17406100;2023-05-10T08:33:22;13.00;99.90
9800;DHT22;4939;52.00085300;4.17406100;2023-05-10T08:35:48;13.10;99.90
9800;DHT22;4939;52.00085300;4.17406100;2023-05-10T08:38:14;13.20;99.90
9800;DHT22;4939;52.00085300;4.17406100;2023-05-10T08:40:42;13.10;99.90
9800;DHT22;4939;52.00085300;4.17406100;2023-05-10T08:43:10;13.20;99.90
9800;DHT22;4939;52.00085300;4.17406100;2023-05-10T08:45:40;13.30;99.90
9800;DHT22;4939;52.00085300;4.17406100;2023-05-10T08:48:08;13.30;99.90
9800;DHT22;4939;52.00085300;4.17406100;2023-05-10T08:50:36;13.40;99.90
9800;DHT22;4939;52.00085300;4.17406100;2023-05-10T08:53:13;13.40;99.90
9800;DHT22;4939;52.00085300;4.17406100;2023-05-10T08:58:09;13.50;99.90
9800;DHT22;4939;52.00085300;4.17406100;2023-05-10T09:00:35;13.70;99.90
9800;DHT22;4939;52.00085300;4.17406100;2023-05-10T09:03:04;13.60;99.90
9800;DHT22;4939;52.00085300;4.17406100;2023-05-10T09:05:30;13.60;99.90
9800;DHT22;4939;52.00085300;4.17406100;2023-05-10T09:07:55;13.70;99.90
9800;DHT22;4939;52.00085300;4.17406100;2023-05-10T09:10:21;13.60;99.90
9800;DHT22;4939;52.00085300;4.17406100;2023-05-10T09:12:48;13.50;99.90
9800;DHT22;4939;52.00085300;4.17406100;2023-05-10T09:15:15;13.40;99.90
9800;DHT22;4939;52.00085300;4.17406100;2023-05-10T09:17:44;13.40;99.90
9800;DHT22;4939;52.00085300;4.17406100;2023-05-10T09:20:11;13.30;99.90
9800;DHT22;4939;52.00085300;4.17406100;2023-05-10T09:25:07;13.10;99.90
9800;DHT22;4939;52.00085300;4.17406100;2023-05-10T09:27:34;13.20;99.90
9800;DHT22;4939;52.00085300;4.17406100;2023-05-10T09:32:45;13.10;99.90
9800;DHT22;4939;52.00085300;4.17406100;2023-05-10T09:35:14;13.20;99.90
9800;DHT22;4939;52.00085300;4.17406100;2023-05-10T09:37:44;13.20;99.90
9800;DHT22;4939;52.00085300;4.17406100;2023-05-10T09:40:13;13.40;99.90
9800;DHT22;4939;52.00085300;4.17406100;2023-05-10T09:43:03;13.50;99.90
9800;DHT22;4939;52.00085300;4.17406100;2023-05-10T09:45:31;13.50;99.90
9800;DHT22;4939;52.00085300;4.17406100;2023-05-10T09:47:58;13.50;99.90
9800;DHT22;4939;52.00085300;4.17406100;2023-05-10T09:50:25;13.60;99.90
9800;DHT22;4939;52.00085300;4.17406100;2023-05-10T09:52:53;13.50;99.90
9800;DHT22;4939;52.00085300;4.17406100;2023-05-10T09:55:21;13.40;99.90
9800;DHT22;4939;52.00085300;4.17406100;2023-05-10T09:57:48;13.50;99.90
9800;DHT22;4939;52.00085300;4.17406100;2023-05-10T10:00:20;13.50;99.90
9800;DHT22;4939;52.00085300;4.17406100;2023-05-10T10:02:48;13.60;99.90
9800;DHT22;4939;52.00085300;4.17406100;2023-05-10T10:05:19;13.60;99.90
9800;DHT22;4939;52.00085300;4.17406100;2023-05-10T10:07:45;13.60;99.90
9800;DHT22;4939;52.00085300;4.17406100;2023-05-10T10:10:11;13.60;99.90
9800;DHT22;4939;52.00085300;4.17406100;2023-05-10T10:12:39;13.50;99.90
9800;DHT22;4939;52.00085300;4.17406100;2023-05-10T10:15:07;13.40;99.90
9800;DHT22;4939;52.00085300;4.17406100;2023-05-10T10:17:35;13.30;99.90
9800;DHT22;4939;52.00085300;4.17406100;2023-05-10T10:20:14;13.30;99.90
9800;DHT22;4939;52.00085300;4.17406100;2023-05-10T10:22:40;13.40;99.90
9800;DHT22;4939;52.00085300;4.17406100;2023-05-10T10:33:51;13.80;99.90
9800;DHT22;4939;52.00085300;4.17406100;2023-05-10T10:36:21;13.90;99.90
9800;DHT22;4939;52.00085300;4.17406100;2023-05-10T10:41:35;13.70;99.90
9800;DHT22;4939;52.00085300;4.17406100;2023-05-10T10:49:31;13.90;99.90
9800;DHT22;4939;52.00085300;4.17406100;2023-05-10T10:52:27;14.00;99.90
9800;DHT22;4939;52.00085300;4.17406100;2023-05-10T10:55:06;14.20;99.90
9800;DHT22;4939;52.00085300;4.17406100;2023-05-10T10:57:43;14.20;99.90
9800;DHT22;4939;52.00085300;4.17406100;2023-05-10T11:02:54;14.20;99.90
9800;DHT22;4939;52.00085300;4.17406100;2023-05-10T11:07:55;14.20;99.90
9800;DHT22;4939;52.00085300;4.17406100;2023-05-10T11:10:22;14.10;99.90
9800;DHT22;4939;52.00085300;4.17406100;2023-05-10T11:12:53;14.10;99.90
9800;DHT22;4939;52.00085300;4.17406100;2023-05-10T11:15:19;14.00;99.90
9800;DHT22;4939;52.00085300;4.17406100;2023-05-10T11:17:47;13.90;99.90
9800;DHT22;4939;52.00085300;4.17406100;2023-05-10T11:20:17;14.00;99.90
9800;DHT22;4939;52.00085300;4.17406100;2023-05-10T11:22:51;14.10;99.90
9800;DHT22;4939;52.00085300;4.17406100;2023-05-10T11:25:17;14.10;99.90
9800;DHT22;4939;52.00085300;4.17406100;2023-05-10T11:27:43;13.90;99.90
9800;DHT22;4939;52.00085300;4.17406100;2023-05-10T11:30:10;13.80;99.90
9800;DHT22;4939;52.00085300;4.17406100;2023-05-10T11:32:40;13.70;99.90
9800;DHT22;4939;52.00085300;4.17406100;2023-05-10T11:35:07;13.80;99.90
9800;DHT22;4939;52.00085300;4.17406100;2023-05-10T11:39:59;13.90;99.90
9800;DHT22;4939;52.00085300;4.17406100;2023-05-10T11:42:26;13.90;99.90
9800;DHT22;4939;52.00085300;4.17406100;2023-05-10T11:44:54;14.00;99.90
9800;DHT22;4939;52.00085300;4.17406100;2023-05-10T11:47:20;14.10;99.90
9800;DHT22;4939;52.00085300;4.17406100;2023-05-10T11:49:47;14.20;99.90
9800;DHT22;4939;52.00085300;4.17406100;2023-05-10T11:54:51;14.20;99.90
9800;DHT22;4939;52.00085300;4.17406100;2023-05-10T11:57:18;14.30;99.90
9800;DHT22;4939;52.00085300;4.17406100;2023-05-10T11:59:46;14.40;99.90
9800;DHT22;4939;52.00085300;4.17406100;2023-05-10T12:02:15;14.40;99.90
9800;DHT22;4939;52.00085300;4.17406100;2023-05-10T12:04:41;14.40;99.90
9800;DHT22;4939;52.00085300;4.17406100;2023-05-10T12:09:33;14.30;99.90
9800;DHT22;4939;52.00085300;4.17406100;2023-05-10T12:14:26;14.20;99.90
9800;DHT22;4939;52.00085300;4.17406100;2023-05-10T12:16:57;14.10;99.90
9800;DHT22;4939;52.00085300;4.17406100;2023-05-10T12:19:23;14.20;99.90
9800;DHT22;4939;52.00085300;4.17406100;2023-05-10T12:21:49;14.10;99.90
9800;DHT22;4939;52.00085300;4.17406100;2023-05-10T12:24:14;14.00;99.90
9800;DHT22;4939;52.00085300;4.17406100;2023-05-10T12:26:45;14.00;99.90
9800;DHT22;4939;52.00085300;4.17406100;2023-05-10T12:29:18;14.00;99.90
9800;DHT22;4939;52.00085300;4.17406100;2023-05-10T12:31:51;14.10;99.90
9800;DHT22;4939;52.00085300;4.17406100;2023-05-10T12:34:34;14.20;99.90
9800;DHT22;4939;52.00085300;4.17406100;2023-05-10T12:37:03;14.30;99.90
9800;DHT22;4939;52.00085300;4.17406100;2023-05-10T12:39:43;14.30;99.90
9800;DHT22;4939;52.00085300;4.17406100;2023-05-10T12:46:44;14.50;99.90
9800;DHT22;4939;52.00085300;4.17406100;2023-05-10T12:49:10;14.60;99.90
9800;DHT22;4939;52.00085300;4.17406100;2023-05-10T12:51:36;14.50;99.90
9800;DHT22;4939;52.00085300;4.17406100;2023-05-10T12:54:02;14.40;99.90
9800;DHT22;4939;52.00085300;4.17406100;2023-05-10T13:03:46;14.60;99.90
9800;DHT22;4939;52.00085300;4.17406100;2023-05-10T13:06:13;14.60;99.90
9800;DHT22;4939;52.00085300;4.17406100;2023-05-10T13:08:39;14.60;99.90
9800;DHT22;4939;52.00085300;4.17406100;2023-05-10T13:11:05;14.60;99.90
9800;DHT22;4939;52.00085300;4.17406100;2023-05-10T13:18:23;14.70;99.90
9800;DHT22;4939;52.00085300;4.17406100;2023-05-10T13:20:50;14.80;99.90
9800;DHT22;4939;52.00085300;4.17406100;2023-05-10T13:23:15;14.70;99.90
9800;DHT22;4939;52.00085300;4.17406100;2023-05-10T14:03:54;14.40;99.90
9800;DHT22;4939;52.00085300;4.17406100;2023-05-10T14:06:19;14.40;99.90
9800;DHT22;4939;52.00085300;4.17406100;2023-05-10T14:08:45;14.50;99.90
9800;DHT22;4939;52.00085300;4.17406100;2023-05-10T14:13:38;14.40;99.90
9800;DHT22;4939;52.00085300;4.17406100;2023-05-10T14:16:04;14.40;99.90
9800;DHT22;4939;52.00085300;4.17406100;2023-05-10T14:20:56;14.50;99.90
9800;DHT22;4939;52.00085300;4.17406100;2023-05-10T14:23:22;14.40;99.90
9800;DHT22;4939;52.00085300;4.17406100;2023-05-10T14:25:52;14.40;99.90
9800;DHT22;4939;52.00085300;4.17406100;2023-05-10T14:30:44;14.60;99.90
9800;DHT22;4939;52.00085300;4.17406100;2023-05-10T14:33:10;14.60;99.90
9800;DHT22;4939;52.00085300;4.17406100;2023-05-10T14:35:36;14.60;99.90
9800;DHT22;4939;52.00085300;4.17406100;2023-05-10T14:38:02;14.80;99.90
9800;DHT22;4939;52.00085300;4.17406100;2023-05-10T14:42:55;14.70;99.90
9800;DHT22;4939;52.00085300;4.17406100;2023-05-10T14:45:22;14.50;99.90
9800;DHT22;4939;52.00085300;4.17406100;2023-05-10T14:47:48;14.40;99.90
9800;DHT22;4939;52.00085300;4.17406100;2023-05-10T14:50:14;14.30;99.90
9800;DHT22;4939;52.00085300;4.17406100;2023-05-10T14:52:40;14.10;99.90
9800;DHT22;4939;52.00085300;4.17406100;2023-05-10T14:55:06;14.10;99.90
9800;DHT22;4939;52.00085300;4.17406100;2023-05-10T14:57:32;14.20;99.90
9800;DHT22;4939;52.00085300;4.17406100;2023-05-10T14:59:58;14.20;99.90
9800;DHT22;4939;52.00085300;4.17406100;2023-05-10T15:02:24;14.10;99.90
9800;DHT22;4939;52.00085300;4.17406100;2023-05-10T15:04:50;14.20;99.90
9800;DHT22;4939;52.00085300;4.17406100;2023-05-10T15:07:16;14.10;99.90
9800;DHT22;4939;52.00085300;4.17406100;2023-05-10T15:09:44;14.10;99.90
9800;DHT22;4939;52.00085300;4.17406100;2023-05-10T15:12:10;14.00;99.90
9800;DHT22;4939;52.00085300;4.17406100;2023-05-10T15:14:36;14.10;99.90
9800;DHT22;4939;52.00085300;4.17406100;2023-05-10T15:17:02;14.10;99.90
9800;DHT22;4939;52.00085300;4.17406100;2023-05-10T15:19:28;14.20;99.90
9800;DHT22;4939;52.00085300;4.17406100;2023-05-10T15:21:55;14.20;99.90
9800;DHT22;4939;52.00085300;4.17406100;2023-05-10T15:24:21;14.30;99.90
9800;DHT22;4939;52.00085300;4.17406100;2023-05-10T15:26:47;14.40;99.90
9800;DHT22;4939;52.00085300;4.17406100;2023-05-10T15:29:13;14.50;99.90
9800;DHT22;4939;52.00085300;4.17406100;2023-05-10T15:31:46;14.50;99.90
9800;DHT22;4939;52.00085300;4.17406100;2023-05-10T15:36:39;14.70;99.90
9800;DHT22;4939;52.00085300;4.17406100;2023-05-10T15:39:04;14.70;99.90
9800;DHT22;4939;52.00085300;4.17406100;2023-05-10T15:41:30;14.60;99.90
9800;DHT22;4939;52.00085300;4.17406100;2023-05-10T15:43:57;14.60;99.90
9800;DHT22;4939;52.00085300;4.17406100;2023-05-10T15:48:51;14.80;99.90
9800;DHT22;4939;52.00085300;4.17406100;2023-05-10T15:51:17;14.90;99.90
9800;DHT22;4939;52.00085300;4.17406100;2023-05-10T15:53:44;14.70;99.90
9800;DHT22;4939;52.00085300;4.17406100;2023-05-10T15:56:10;14.60;99.90
9800;DHT22;4939;52.00085300;4.17406100;2023-05-10T15:58:37;14.60;99.90
9800;DHT22;4939;52.00085300;4.17406100;2023-05-10T16:01:03;14.60;99.90
9800;DHT22;4939;52.00085300;4.17406100;2023-05-10T16:03:30;14.40;99.90
9800;DHT22;4939;52.00085300;4.17406100;2023-05-10T16:05:56;14.40;99.90
9800;DHT22;4939;52.00085300;4.17406100;2023-05-10T16:08:22;14.40;99.90
9800;DHT22;4939;52.00085300;4.17406100;2023-05-10T16:10:49;14.40;99.90
9800;DHT22;4939;52.00085300;4.17406100;2023-05-10T16:15:42;14.20;99.90
9800;DHT22;4939;52.00085300;4.17406100;2023-05-10T16:18:07;14.10;99.90
9800;DHT22;4939;52.00085300;4.17406100;2023-05-10T16:20:33;14.10;99.90
9800;DHT22;4939;52.00085300;4.17406100;2023-05-10T16:23:03;14.10;99.90
9800;DHT22;4939;52.00085300;4.17406100;2023-05-10T16:25:29;14.10;99.90
9800;DHT22;4939;52.00085300;4.17406100;2023-05-10T16:27:55;14.20;99.90
9800;DHT22;4939;52.00085300;4.17406100;2023-05-10T16:30:21;14.10;99.90
9800;DHT22;4939;52.00085300;4.17406100;2023-05-10T16:35:15;14.20;99.90
9800;DHT22;4939;52.00085300;4.17406100;2023-05-10T16:37:40;14.10;99.90
9800;DHT22;4939;52.00085300;4.17406100;2023-05-10T16:40:07;14.10;99.90
9800;DHT22;4939;52.00085300;4.17406100;2023-05-10T16:42:32;14.10;99.90
9800;DHT22;4939;52.00085300;4.17406100;2023-05-10T16:44:58;14.00;99.90
9800;DHT22;4939;52.00085300;4.17406100;2023-05-10T16:47:35;13.90;99.90
9800;DHT22;4939;52.00085300;4.17406100;2023-05-10T16:50:02;13.80;99.90
9800;DHT22;4939;52.00085300;4.17406100;2023-05-10T16:52:28;13.70;99.90
9800;DHT22;4939;52.00085300;4.17406100;2023-05-10T16:54:54;13.70;99.90
9800;DHT22;4939;52.00085300;4.17406100;2023-05-10T16:57:20;13.70;99.90
9800;DHT22;4939;52.00085300;4.17406100;2023-05-10T16:59:45;13.60;99.90